Time;durP1;ratioP1;P1;durP2;ratioP2;P2;SDS_P1;SDS_P2;PMS_P1;PMS_P2;Temp;Humidity;BMP_temperature;BMP_pressure;BME280_temperature;BME280_humidity;BME280_pressure;Samples;Min_cycle;Max_cycle;Signal;HPM_P1;HPM_P2
2021/03/20 00:01:25;;;;;;;18.63;8.95;;;0.80;99.90;;;;;;5091898;28;20922;-59
2021/03/20 00:03:51;;;;;;;15.65;8.15;;;0.70;99.90;;;;;;5092489;28;20398;-59
2021/03/20 00:06:22;;;;;;;16.70;7.90;;;0.80;99.90;;;;;;5090522;28;20374;-59
2021/03/20 00:08:49;;;;;;;17.50;8.15;;;0.70;99.90;;;;;;5092588;28;20468;-59
2021/03/20 00:11:16;;;;;;;13.90;7.77;;;0.70;99.90;;;;;;5091295;28;20406;-59
2021/03/20 00:13:42;;;;;;;14.03;7.80;;;0.60;99.90;;;;;;5092208;28;20950;-59
2021/03/20 00:16:08;;;;;;;12.57;7.25;;;0.60;99.90;;;;;;5091540;28;20391;-60
2021/03/20 00:18:34;;;;;;;13.85;7.57;;;0.70;99.90;;;;;;5092222;28;20369;-60
2021/03/20 00:21:00;;;;;;;12.75;7.03;;;2.90;99.90;;;;;;5091308;28;20390;-59
2021/03/20 00:23:26;;;;;;;13.48;7.00;;;0.70;99.90;;;;;;5073428;28;20397;-59
2021/03/20 00:25:53;;;;;;;13.07;6.90;;;0.70;99.90;;;;;;5091229;28;20397;-59
2021/03/20 00:28:22;;;;;;;12.20;6.47;;;0.70;99.90;;;;;;5092007;28;20406;-60
2021/03/20 00:30:56;;;;;;;16.00;6.63;;;0.70;99.90;;;;;;5091918;28;20370;-60
2021/03/20 00:33:22;;;;;;;12.80;6.38;;;0.70;99.90;;;;;;5091495;28;20413;-59
2021/03/20 00:35:48;;;;;;;13.10;6.35;;;0.80;99.90;;;;;;5091788;28;20796;-59
2021/03/20 00:38:15;;;;;;;12.07;6.70;;;0.80;99.90;;;;;;5090990;28;20758;-59
2021/03/20 00:40:41;;;;;;;12.70;7.05;;;2.90;99.90;;;;;;5091751;28;20382;-59
2021/03/20 00:43:07;;;;;;;14.82;7.50;;;1.00;99.90;;;;;;5090855;28;20378;-60
2021/03/20 00:45:33;;;;;;;13.07;6.70;;;1.10;99.90;;;;;;5091366;28;20374;-59
2021/03/20 00:48:05;;;;;;;13.35;7.10;;;1.20;99.90;;;;;;5091152;28;20414;-60
2021/03/20 00:50:31;;;;;;;13.20;7.40;;;1.30;99.90;;;;;;5091335;28;20453;-59
2021/03/20 00:52:56;;;;;;;12.25;7.07;;;2.30;99.90;;;;;;5090948;28;20458;-57
2021/03/20 00:55:22;;;;;;;12.10;7.10;;;2.00;99.90;;;;;;5091898;28;20397;-60
2021/03/20 00:57:48;;;;;;;15.13;8.17;;;2.80;99.90;;;;;;5091122;28;20770;-60
2021/03/20 01:00:17;;;;;;;15.67;7.57;;;2.90;99.90;;;;;;5090432;28;21088;-59
2021/03/20 01:02:43;;;;;;;11.93;6.70;;;1.30;99.90;;;;;;5091248;28;20410;-60
2021/03/20 01:05:10;;;;;;;13.75;6.97;;;1.30;99.90;;;;;;5090164;28;20868;-59
2021/03/20 01:07:36;;;;;;;18.30;8.43;;;1.30;99.90;;;;;;5091119;28;20406;-59
2021/03/20 01:10:05;;;;;;;16.17;7.80;;;1.30;99.90;;;;;;5090446;28;20374;-59
2021/03/20 01:12:31;;;;;;;16.30;8.25;;;1.30;99.90;;;;;;5091036;28;20379;-60
2021/03/20 01:14:57;;;;;;;14.32;8.40;;;1.40;99.90;;;;;;5090516;28;20429;-57
2021/03/20 01:17:22;;;;;;;18.83;8.07;;;1.30;99.90;;;;;;5089628;28;20476;-60
2021/03/20 01:19:48;;;;;;;19.55;8.73;;;1.20;99.90;;;;;;5090881;28;20464;-60
2021/03/20 01:22:14;;;;;;;14.77;8.13;;;1.10;99.90;;;;;;5090177;28;20461;-60
2021/03/20 01:24:39;;;;;;;15.33;7.30;;;1.20;99.90;;;;;;5090850;28;20378;-59
2021/03/20 01:27:05;;;;;;;14.00;7.30;;;1.10;99.90;;;;;;5089410;28;20394;-60
2021/03/20 01:29:31;;;;;;;12.77;7.28;;;2.40;99.90;;;;;;5090349;28;20838;-60
2021/03/20 01:31:57;;;;;;;12.20;6.63;;;1.10;99.90;;;;;;5090337;28;20420;-57
2021/03/20 01:34:22;;;;;;;11.68;6.75;;;1.10;99.90;;;;;;5089730;28;20382;-59
2021/03/20 01:36:48;;;;;;;12.90;6.80;;;1.20;99.90;;;;;;5090715;28;20431;-59
2021/03/20 01:39:13;;;;;;;13.07;6.93;;;1.20;99.90;;;;;;5089724;28;21185;-60
2021/03/20 01:41:43;;;;;;;13.00;6.60;;;1.20;99.90;;;;;;5090651;28;20370;-60
2021/03/20 01:44:18;;;;;;;16.83;8.05;;;1.30;99.90;;;;;;5089729;28;20385;-60
2021/03/20 01:46:50;;;;;;;16.70;9.30;;;1.20;99.90;;;;;;5090298;28;20390;-59
2021/03/20 01:49:33;;;;;;;18.08;9.63;;;3.60;99.90;;;;;;5089447;28;20757;-60
2021/03/20 01:52:01;;;;;;;27.13;11.95;;;1.40;99.90;;;;;;5071713;28;20962;-59
2021/03/20 01:54:33;;;;;;;20.45;9.63;;;3.70;99.90;;;;;;5090298;28;20378;-60
2021/03/20 01:57:02;;;;;;;18.67;8.85;;;1.40;99.90;;;;;;5089253;28;20381;-59
2021/03/20 01:59:27;;;;;;;18.73;8.70;;;1.40;99.90;;;;;;5090150;28;20386;-60
2021/03/20 02:01:53;;;;;;;14.27;7.93;;;1.40;99.90;;;;;;5089893;28;20870;-60
2021/03/20 02:04:19;;;;;;;17.20;8.27;;;1.30;99.90;;;;;;5089003;28;20374;-61
2021/03/20 02:06:45;;;;;;;19.07;9.83;;;3.60;99.90;;;;;;5090324;28;20370;-60
2021/03/20 02:09:11;;;;;;;16.52;8.48;;;3.40;99.90;;;;;;5089230;28;20416;-61
2021/03/20 02:11:47;;;;;;;16.42;7.70;;;1.40;99.90;;;;;;5090355;28;20366;-60
2021/03/20 02:14:53;;;;;;;15.80;8.20;;;1.30;99.90;;;;;;5089358;28;20378;-60
2021/03/20 02:17:30;;;;;;;15.65;7.88;;;1.20;99.90;;;;;;5088862;28;20927;-60
2021/03/20 02:20:04;;;;;;;16.85;8.40;;;1.20;99.90;;;;;;5089478;28;20414;-58
2021/03/20 02:22:53;;;;;;;22.20;9.33;;;1.20;99.90;;;;;;5089949;28;20385;-61
2021/03/20 02:25:33;;;;;;;20.48;9.38;;;1.30;99.90;;;;;;5087689;28;20443;-61
2021/03/20 02:28:04;;;;;;;18.67;8.98;;;3.20;99.90;;;;;;5089179;28;20406;-61
2021/03/20 02:30:54;;;;;;;20.35;8.55;;;1.50;99.90;;;;;;5094303;28;20374;-61
2021/03/20 02:33:46;;;;;;;17.10;8.40;;;1.40;99.90;;;;;;5073480;28;20405;-61
2021/03/20 02:36:44;;;;;;;13.70;7.50;;;1.40;99.90;;;;;;5093114;28;20374;-61
2021/03/20 02:39:33;;;;;;;14.18;7.60;;;1.40;99.90;;;;;;5093094;28;20382;-60
2021/03/20 02:42:18;;;;;;;14.55;7.45;;;2.60;99.90;;;;;;5046115;28;20394;-58
2021/03/20 02:45:09;;;;;;;13.63;7.45;;;1.40;99.90;;;;;;5094195;28;20389;-60
2021/03/20 02:47:45;;;;;;;17.63;8.38;;;1.50;99.90;;;;;;5093883;28;20382;-60
2021/03/20 02:50:19;;;;;;;24.45;11.20;;;1.40;99.90;;;;;;5092834;28;20378;-60
2021/03/20 02:52:50;;;;;;;22.50;10.77;;;2.90;99.90;;;;;;5093246;28;20408;-60
2021/03/20 02:55:33;;;;;;;19.47;10.43;;;1.50;99.90;;;;;;5092861;28;20402;-60
2021/03/20 02:58:27;;;;;;;23.67;11.52;;;1.50;99.90;;;;;;5093326;28;20394;-57
2021/03/20 03:01:03;;;;;;;32.70;12.38;;;1.50;99.90;;;;;;5093707;28;20416;-60
2021/03/20 03:03:33;;;;;;;32.15;12.63;;;1.50;99.90;;;;;;5093623;28;20382;-62
2021/03/20 03:06:26;;;;;;;25.50;10.67;;;1.50;99.90;;;;;;5074463;28;20386;-58
2021/03/20 03:09:05;;;;;;;20.20;9.35;;;1.50;99.90;;;;;;5093153;28;20444;-60
2021/03/20 03:11:46;;;;;;;23.77;10.63;;;1.40;99.90;;;;;;5093432;28;20397;-60
2021/03/20 03:14:25;;;;;;;22.48;11.13;;;1.40;99.90;;;;;;5092671;28;20740;-61
2021/03/20 03:16:54;;;;;;;19.88;7.60;;;1.30;99.90;;;;;;5093664;28;20469;-60
2021/03/20 03:19:42;;;;;;;16.52;8.40;;;1.30;99.90;;;;;;5092192;28;20374;-60
2021/03/20 03:22:18;;;;;;;18.23;9.60;;;1.30;99.90;;;;;;5092410;28;20382;-60
2021/03/20 03:24:46;;;;;;;16.75;9.05;;;3.30;99.90;;;;;;5093162;28;20377;-60
2021/03/20 03:27:15;;;;;;;15.98;7.80;;;1.30;99.90;;;;;;5074152;28;20385;-60
2021/03/20 03:29:41;;;;;;;15.75;8.50;;;1.40;99.90;;;;;;5093080;28;20410;-60
2021/03/20 03:32:36;;;;;;;11.60;7.00;;;1.40;99.90;;;;;;5092177;28;20390;-61
2021/03/20 03:35:05;;;;;;;16.13;7.30;;;1.40;99.90;;;;;;5091944;28;20378;-59
2021/03/20 03:37:30;;;;;;;13.57;7.40;;;1.40;99.90;;;;;;5092837;28;20392;-61
2021/03/20 03:40:00;;;;;;;11.00;7.00;;;1.40;99.90;;;;;;5091553;28;20378;-61
2021/03/20 03:42:26;;;;;;;13.00;7.00;;;1.40;99.90;;;;;;5092491;28;20686;-60
2021/03/20 03:44:54;;;;;;;12.87;6.90;;;3.90;99.90;;;;;;5092522;28;20399;-60
2021/03/20 03:47:30;;;;;;;13.90;7.85;;;3.00;99.90;;;;;;5092235;28;20369;-60
2021/03/20 03:49:57;;;;;;;17.23;8.40;;;1.20;99.90;;;;;;5092770;28;20477;-60
2021/03/20 03:52:23;;;;;;;11.60;6.90;;;3.70;99.90;;;;;;5092344;28;20824;-61
2021/03/20 03:54:50;;;;;;;13.07;7.22;;;1.30;99.90;;;;;;5092195;28;20424;-59
2021/03/20 03:57:48;;;;;;;13.88;7.50;;;1.40;99.90;;;;;;5091627;28;20382;-60
2021/03/20 04:00:44;;;;;;;12.20;6.90;;;1.40;99.90;;;;;;5091853;28;20412;-58
2021/03/20 04:03:41;;;;;;;12.68;7.60;;;1.40;99.90;;;;;;5091622;28;20748;-59
2021/03/20 04:06:19;;;;;;;13.35;7.00;;;1.40;99.90;;;;;;5091665;28;20383;-59
2021/03/20 04:08:55;;;;;;;12.20;7.68;;;1.40;99.90;;;;;;5092247;28;20767;-61
2021/03/20 04:11:30;;;;;;;12.77;7.40;;;1.30;99.90;;;;;;5091304;28;20373;-61
2021/03/20 04:14:17;;;;;;;13.35;7.40;;;1.20;99.90;;;;;;5092197;28;20848;-60
2021/03/20 04:16:59;;;;;;;13.20;7.65;;;1.20;99.90;;;;;;5092298;28;20379;-59
2021/03/20 04:19:51;;;;;;;11.87;7.23;;;3.30;99.90;;;;;;5091552;28;20732;-61
2021/03/20 04:22:46;;;;;;;12.15;7.57;;;1.10;99.90;;;;;;5091266;28;20370;-60
2021/03/20 04:25:21;;;;;;;14.07;6.97;;;1.00;99.90;;;;;;5048458;28;20398;-59
2021/03/20 04:27:51;;;;;;;12.82;7.32;;;0.90;99.90;;;;;;5091751;28;20366;-60
2021/03/20 04:30:27;;;;;;;13.20;7.60;;;2.10;99.90;;;;;;5091226;28;20378;-59
2021/03/20 04:33:17;;;;;;;13.98;7.90;;;0.90;99.90;;;;;;5091465;28;20851;-59
2021/03/20 04:35:54;;;;;;;15.38;8.38;;;1.60;99.90;;;;;;5091402;28;20417;-59
2021/03/20 04:38:20;;;;;;;16.15;8.65;;;0.80;99.90;;;;;;5089719;28;20863;-59
2021/03/20 04:41:08;;;;;;;14.90;8.52;;;3.20;99.90;;;;;;5091353;28;20406;-60
2021/03/20 04:43:35;;;;;;;14.60;7.95;;;0.70;99.90;;;;;;5089866;28;20393;-60
2021/03/20 04:46:05;;;;;;;16.73;8.90;;;1.70;99.90;;;;;;5089549;28;20394;-59
2021/03/20 04:48:40;;;;;;;13.70;7.70;;;0.70;99.90;;;;;;5091454;28;20398;-60
2021/03/20 04:51:32;;;;;;;15.80;8.88;;;0.60;99.90;;;;;;5088706;28;20904;-60
2021/03/20 04:54:08;;;;;;;14.30;8.18;;;0.50;99.90;;;;;;5090132;28;20402;-57
2021/03/20 04:56:41;;;;;;;13.85;8.20;;;0.40;99.90;;;;;;5091065;28;20904;-59
2021/03/20 04:59:19;;;;;;;13.85;8.20;;;0.40;99.90;;;;;;5089050;28;20406;-59
2021/03/20 05:01:53;;;;;;;15.50;8.40;;;2.40;99.90;;;;;;5091058;28;20386;-59
2021/03/20 05:04:21;;;;;;;13.13;7.20;;;0.70;99.90;;;;;;5088796;28;20397;-60
2021/03/20 05:06:49;;;;;;;12.10;6.87;;;0.40;99.90;;;;;;5090815;28;20436;-59
2021/03/20 05:09:24;;;;;;;13.20;7.68;;;0.40;99.90;;;;;;5089188;28;20417;-58
2021/03/20 05:12:00;;;;;;;14.30;7.45;;;0.40;99.90;;;;;;5090356;28;20851;-60
2021/03/20 05:15:06;;;;;;;13.35;7.70;;;0.20;99.90;;;;;;5091095;28;20378;-60
2021/03/20 05:17:32;;;;;;;14.90;8.00;;;0.30;99.90;;;;;;5089987;28;20489;-60
2021/03/20 05:19:59;;;;;;;12.57;7.40;;;0.40;99.90;;;;;;5090549;28;20405;-57
2021/03/20 05:22:28;;;;;;;15.50;8.10;;;2.80;99.90;;;;;;5072419;28;20391;-60
2021/03/20 05:24:56;;;;;;;15.15;8.10;;;0.40;99.90;;;;;;5090590;28;20431;-60
2021/03/20 05:27:24;;;;;;;13.30;7.88;;;2.90;99.90;;;;;;5089746;28;20377;-60
2021/03/20 05:29:50;;;;;;;14.88;8.10;;;0.40;99.90;;;;;;5090862;28;20402;-60
2021/03/20 05:32:21;;;;;;;12.15;7.20;;;0.40;99.90;;;;;;5089671;28;20435;-60
2021/03/20 05:34:47;;;;;;;14.52;7.82;;;1.70;99.90;;;;;;5090458;28;20374;-60
2021/03/20 05:37:26;;;;;;;17.40;8.10;;;2.40;99.90;;;;;;5089284;28;20394;-60
2021/03/20 05:39:52;;;;;;;12.85;6.95;;;0.40;99.90;;;;;;5086477;28;20389;-60
2021/03/20 05:42:43;;;;;;;12.25;6.88;;;1.30;99.90;;;;;;5089526;28;20469;-60
2021/03/20 05:45:18;;;;;;;11.43;6.00;;;0.30;99.90;;;;;;5089940;28;20848;-60
2021/03/20 05:48:15;;;;;;;11.70;6.53;;;0.30;99.90;;;;;;5090557;28;20370;-60
2021/03/20 05:51:02;;;;;;;13.48;6.28;;;0.40;99.90;;;;;;5072414;28;20389;-60
2021/03/20 05:53:42;;;;;;;11.55;5.30;;;0.80;99.90;;;;;;5090059;28;20375;-60
2021/03/20 05:56:19;;;;;;;10.52;5.30;;;1.10;99.90;;;;;;5089821;28;20426;-61
2021/03/20 05:59:19;;;;;;;11.88;5.85;;;1.10;99.90;;;;;;5090105;28;20443;-60
2021/03/20 06:02:19;;;;;;;11.98;5.72;;;1.10;99.90;;;;;;5090372;28;20424;-60
2021/03/20 06:04:48;;;;;;;11.27;5.20;;;0.90;99.90;;;;;;5089573;28;20831;-60
2021/03/20 06:07:16;;;;;;;10.93;5.32;;;0.90;99.90;;;;;;5089184;28;20425;-60
2021/03/20 06:10:06;;;;;;;10.05;5.50;;;1.00;99.90;;;;;;5089859;28;20401;-60
2021/03/20 06:12:55;;;;;;;8.70;4.60;;;1.00;99.90;;;;;;5090115;28;20374;-60
2021/03/20 06:15:46;;;;;;;8.32;5.00;;;1.00;99.90;;;;;;5089205;28;20384;-61
2021/03/20 06:18:30;;;;;;;9.20;4.40;;;1.00;99.90;;;;;;5089111;28;20867;-60
2021/03/20 06:21:15;;;;;;;9.40;4.82;;;2.30;99.90;;;;;;5090036;28;20568;-60
2021/03/20 06:23:44;;;;;;;7.57;4.25;;;0.90;99.90;;;;;;5089893;28;20374;-60
2021/03/20 06:26:18;;;;;;;11.98;5.10;;;2.70;99.90;;;;;;5089274;28;20401;-60
2021/03/20 06:29:21;;;;;;;8.93;4.60;;;1.90;99.90;;;;;;5089870;28;20410;-59
2021/03/20 06:31:58;;;;;;;10.20;4.47;;;1.00;99.90;;;;;;5078961;28;20932;-60
2021/03/20 06:34:31;;;;;;;10.90;4.80;;;1.20;99.90;;;;;;5088847;28;20732;-60
2021/03/20 06:36:59;;;;;;;10.65;5.00;;;3.30;99.90;;;;;;5089947;28;20382;-59
2021/03/20 06:39:35;;;;;;;10.40;5.00;;;1.00;99.90;;;;;;5089548;28;20833;-59
2021/03/20 06:42:10;;;;;;;11.90;5.40;;;3.80;99.90;;;;;;5089344;28;20381;-57
2021/03/20 06:44:42;;;;;;;8.05;4.60;;;1.30;99.90;;;;;;5089882;28;20405;-60
2021/03/20 06:47:25;;;;;;;14.35;8.10;;;3.60;99.90;;;;;;5088823;28;20382;-60
2021/03/20 06:50:09;;;;;;;16.95;8.02;;;1.70;99.90;;;;;;5089660;28;20412;-60
2021/03/20 06:52:37;;;;;;;13.98;6.57;;;1.90;99.90;;;;;;5089591;28;20375;-60
2021/03/20 06:55:23;;;;;;;11.45;6.00;;;2.10;99.90;;;;;;5076153;28;20398;-57
2021/03/20 06:57:49;;;;;;;11.30;6.32;;;2.00;99.90;;;;;;5083315;28;20397;-60
2021/03/20 07:00:25;;;;;;;12.03;6.03;;;3.50;99.90;;;;;;5071701;28;20376;-60
2021/03/20 07:03:06;;;;;;;9.40;5.20;;;1.90;99.90;;;;;;5071346;28;20379;-60
2021/03/20 07:05:37;;;;;;;9.65;5.03;;;2.10;99.90;;;;;;5089330;28;20439;-60
2021/03/20 07:08:07;;;;;;;9.05;5.40;;;1.70;99.90;;;;;;5088734;28;20883;-57
2021/03/20 07:10:48;;;;;;;9.73;4.90;;;1.70;99.90;;;;;;5087492;28;20473;-60
2021/03/20 07:13:31;;;;;;;10.38;4.90;;;1.80;99.90;;;;;;5088290;28;20381;-60
2021/03/20 07:16:15;;;;;;;8.88;4.88;;;1.80;99.90;;;;;;5090631;28;20461;-59
2021/03/20 07:18:51;;;;;;;9.50;4.80;;;2.10;99.90;;;;;;5092609;28;20409;-59
2021/03/20 07:21:38;;;;;;;9.63;4.97;;;2.10;99.90;;;;;;5090593;28;20455;-59
2021/03/20 07:24:20;;;;;;;11.30;5.38;;;2.30;99.90;;;;;;5072318;28;20383;-56
2021/03/20 07:27:20;;;;;;;8.93;4.50;;;2.60;99.90;;;;;;5087521;28;20877;-59
2021/03/20 07:30:28;;;;;;;10.55;4.60;;;3.80;99.90;;;;;;5086682;28;20433;-59
2021/03/20 07:32:54;;;;;;;8.40;4.43;;;2.80;99.90;;;;;;5092237;28;20466;-59
2021/03/20 07:35:19;;;;;;;9.43;4.70;;;3.10;99.90;;;;;;5089902;28;20845;-59
2021/03/20 07:37:47;;;;;;;7.73;4.07;;;4.60;99.90;;;;;;5092688;28;20377;-59
2021/03/20 07:40:33;;;;;;;8.10;4.38;;;3.10;99.90;;;;;;5090102;28;20448;-59
2021/03/20 07:43:19;;;;;;;8.13;4.30;;;3.60;99.90;;;;;;5091302;28;20408;-59
2021/03/20 07:45:47;;;;;;;8.57;4.63;;;3.50;99.90;;;;;;5092120;28;20469;-58
2021/03/20 07:48:19;;;;;;;13.77;4.70;;;3.60;99.90;;;;;;5089853;28;20942;-58
2021/03/20 07:51:01;;;;;;;8.77;4.17;;;5.50;99.90;;;;;;5092141;28;20386;-58
2021/03/20 07:53:28;;;;;;;7.77;4.50;;;4.10;99.90;;;;;;5072037;28;20395;-58
2021/03/20 07:55:59;;;;;;;8.25;4.70;;;5.00;99.90;;;;;;5090853;28;20480;-59
2021/03/20 07:58:27;;;;;;;7.35;3.65;;;4.60;99.90;;;;;;5091433;28;20386;-59
2021/03/20 08:00:57;;;;;;;9.20;4.20;;;4.60;99.90;;;;;;5090462;28;20439;-59
2021/03/20 08:03:30;;;;;;;9.93;4.77;;;4.40;99.90;;;;;;5082317;28;20412;-59
2021/03/20 08:06:17;;;;;;;7.30;4.45;;;4.20;99.90;;;;;;5076278;28;20394;-58
2021/03/20 08:08:43;;;;;;;8.23;3.80;;;3.90;99.90;;;;;;5090895;28;20425;-58
2021/03/20 08:11:29;;;;;;;7.90;4.10;;;4.60;99.90;;;;;;5091053;28;20401;-59
2021/03/20 08:14:01;;;;;;;6.85;3.70;;;5.60;99.90;;;;;;5090565;28;20389;-59
2021/03/20 08:16:27;;;;;;;8.40;4.00;;;5.90;99.90;;;;;;5089335;28;20434;-58
2021/03/20 08:18:55;;;;;;;8.07;4.10;;;5.70;99.90;;;;;;5091701;28;20769;-59
2021/03/20 08:21:26;;;;;;;8.13;4.00;;;5.90;99.90;;;;;;5090925;28;20848;-60
2021/03/20 08:24:04;;;;;;;7.43;4.15;;;7.50;97.60;;;;;;5090119;28;20489;-59
2021/03/20 08:27:03;;;;;;;7.50;3.95;;;9.20;92.60;;;;;;5089231;28;20405;-60
2021/03/20 08:29:35;;;;;;;6.80;3.80;;;10.90;82.50;;;;;;5084908;28;20426;-60
2021/03/20 08:32:25;;;;;;;7.07;4.00;;;11.60;74.50;;;;;;5089810;28;20493;-60
2021/03/20 08:35:03;;;;;;;7.50;3.70;;;12.40;64.20;;;;;;5070941;28;20401;-61
2021/03/20 08:37:36;;;;;;;6.50;3.90;;;13.60;58.70;;;;;;5077276;28;20455;-61
2021/03/20 08:40:23;;;;;;;7.32;4.30;;;13.70;56.00;;;;;;5091608;28;20512;-60
2021/03/20 08:43:19;;;;;;;6.50;3.70;;;12.40;56.60;;;;;;5089428;28;20448;-60
2021/03/20 08:46:22;;;;;;;7.80;3.63;;;10.80;58.40;;;;;;5043290;28;20386;-60
2021/03/20 08:49:02;;;;;;;7.47;4.10;;;11.80;58.20;;;;;;5089676;28;20413;-60
2021/03/20 08:51:54;;;;;;;6.85;4.05;;;10.80;57.60;;;;;;5090695;28;20883;-60
2021/03/20 08:54:45;;;;;;;10.40;4.80;;;10.70;58.00;;;;;;5088673;28;20397;-60
2021/03/20 08:57:44;;;;;;;12.20;5.18;;;10.80;59.70;;;;;;5070447;28;20559;-60
2021/03/20 09:00:26;;;;;;;6.68;3.85;;;12.20;56.30;;;;;;5085391;28;20398;-59
2021/03/20 09:03:00;;;;;;;6.70;3.67;;;11.90;54.40;;;;;;5085960;28;20437;-61
2021/03/20 09:05:35;;;;;;;6.38;3.35;;;11.30;55.20;;;;;;5084493;28;20520;-61
2021/03/20 09:08:08;;;;;;;9.00;4.28;;;10.50;54.90;;;;;;5072245;28;20721;-60
2021/03/20 09:10:44;;;;;;;7.90;4.13;;;10.80;57.50;;;;;;5090740;28;20385;-60
2021/03/20 09:13:39;;;;;;;8.70;3.60;;;10.90;56.70;;;;;;5088500;28;20398;-60
2021/03/20 09:16:37;;;;;;;7.10;4.13;;;11.80;54.40;;;;;;5061104;28;20844;-59
2021/03/20 09:19:07;;;;;;;6.10;3.70;;;12.40;54.40;;;;;;5040430;28;20411;-59
2021/03/20 09:21:37;;;;;;;6.20;3.75;;;12.80;53.70;;;;;;5089702;28;20400;-61
2021/03/20 09:24:30;;;;;;;5.70;3.20;;;14.10;49.60;;;;;;5089652;28;20420;-59
2021/03/20 09:26:58;;;;;;;6.60;3.45;;;13.60;46.80;;;;;;5085300;28;20469;-61
2021/03/20 09:29:26;;;;;;;6.30;3.35;;;12.00;50.00;;;;;;5090064;28;20437;-60
2021/03/20 09:31:55;;;;;;;7.50;3.67;;;10.80;48.40;;;;;;5088872;28;20429;-61
2021/03/20 09:34:37;;;;;;;8.27;3.80;;;9.80;51.10;;;;;;5089104;28;20409;-60
2021/03/20 09:37:28;;;;;;;7.00;3.20;;;8.10;55.20;;;;;;5088822;28;20402;-60
2021/03/20 09:39:56;;;;;;;8.80;4.03;;;7.10;57.40;;;;;;5089886;28;20789;-60
2021/03/20 09:42:27;;;;;;;6.85;2.90;;;6.40;58.50;;;;;;5087716;28;20812;-60
2021/03/20 09:45:11;;;;;;;8.00;3.47;;;6.40;59.20;;;;;;5090224;28;20420;-60
2021/03/20 09:47:52;;;;;;;7.25;3.60;;;6.60;60.60;;;;;;5088840;28;20390;-60
2021/03/20 09:50:17;;;;;;;7.40;3.20;;;6.70;59.80;;;;;;5089001;28;20948;-60
2021/03/20 09:52:50;;;;;;;6.20;3.20;;;6.50;59.30;;;;;;5088815;28;20386;-60
2021/03/20 09:55:28;;;;;;;6.15;2.70;;;6.80;58.20;;;;;;5071056;28;20874;-60
2021/03/20 09:57:55;;;;;;;6.75;3.42;;;7.50;59.00;;;;;;5088221;28;20398;-60
2021/03/20 10:00:57;;;;;;;7.03;3.10;;;7.20;58.20;;;;;;5089440;28;20409;-60
2021/03/20 10:03:40;;;;;;;6.82;3.10;;;7.50;58.40;;;;;;5087736;28;20414;-60
2021/03/20 10:06:26;;;;;;;6.28;2.90;;;7.80;56.50;;;;;;5080480;28;20523;-58
2021/03/20 10:09:09;;;;;;;5.40;2.97;;;8.10;56.70;;;;;;5088859;28;20428;-60
2021/03/20 10:11:36;;;;;;;6.85;2.97;;;8.20;54.50;;;;;;5088725;28;20406;-60
2021/03/20 10:14:22;;;;;;;7.05;3.17;;;8.50;55.00;;;;;;5089355;28;20535;-61
2021/03/20 10:17:06;;;;;;;6.78;3.42;;;9.10;53.20;;;;;;5088532;28;20390;-61
2021/03/20 10:19:36;;;;;;;7.03;3.08;;;9.40;52.20;;;;;;5089335;28;20374;-63
2021/03/20 10:22:06;;;;;;;5.82;2.67;;;9.70;51.90;;;;;;5070127;28;20413;-60
2021/03/20 10:24:33;;;;;;;6.60;3.10;;;9.50;49.50;;;;;;5072056;28;20417;-60
2021/03/20 10:27:04;;;;;;;6.47;3.00;;;9.40;50.90;;;;;;5088694;28;20402;-60
2021/03/20 10:29:36;;;;;;;5.70;2.70;;;9.10;51.90;;;;;;5088927;28;20412;-60
2021/03/20 10:32:15;;;;;;;5.50;2.75;;;9.20;51.00;;;;;;5088549;28;20867;-59
2021/03/20 10:34:51;;;;;;;6.90;2.58;;;8.90;50.40;;;;;;5089779;28;20381;-60
2021/03/20 10:37:18;;;;;;;7.53;3.93;;;8.40;52.40;;;;;;5087564;28;20423;-59
2021/03/20 10:40:02;;;;;;;7.50;3.00;;;7.30;54.20;;;;;;5089508;28;20472;-59
2021/03/20 10:42:33;;;;;;;8.70;3.20;;;6.90;54.30;;;;;;5088623;28;20381;-59
2021/03/20 10:45:03;;;;;;;6.45;2.97;;;7.30;55.10;;;;;;5088747;28;20939;-60
2021/03/20 10:47:28;;;;;;;7.22;3.13;;;8.50;54.30;;;;;;5087815;28;20394;-60
2021/03/20 10:49:59;;;;;;;6.43;3.40;;;11.00;54.50;;;;;;5091149;28;20965;-59
2021/03/20 10:52:31;;;;;;;5.72;2.90;;;11.10;49.90;;;;;;5073705;28;20402;-61
2021/03/20 10:54:59;;;;;;;6.50;3.00;;;11.20;47.60;;;;;;5075024;28;20789;-61
2021/03/20 10:57:30;;;;;;;5.50;2.70;;;11.50;46.80;;;;;;5091280;28;20481;-61
2021/03/20 10:59:57;;;;;;;5.65;2.80;;;12.40;45.80;;;;;;5093422;28;20390;-62
2021/03/20 11:02:27;;;;;;;7.63;3.35;;;12.80;43.30;;;;;;5090949;28;20436;-61
2021/03/20 11:05:09;;;;;;;5.80;3.15;;;12.40;44.00;;;;;;5074076;28;20431;-59
2021/03/20 11:07:46;;;;;;;7.05;3.30;;;12.50;45.40;;;;;;5077046;28;20480;-60
2021/03/20 11:10:13;;;;;;;6.90;3.10;;;12.20;42.20;;;;;;5090978;28;20471;-60
2021/03/20 11:12:38;;;;;;;6.88;2.80;;;12.40;43.70;;;;;;5092651;28;20373;-60
2021/03/20 11:15:05;;;;;;;4.97;2.42;;;11.80;42.20;;;;;;5091668;28;20495;-60
2021/03/20 11:17:32;;;;;;;6.38;2.80;;;10.20;44.40;;;;;;5092553;28;20421;-60
2021/03/20 11:20:19;;;;;;;7.55;3.17;;;10.00;45.50;;;;;;5091476;28;20398;-66
2021/03/20 11:22:46;;;;;;;5.90;2.90;;;10.70;44.70;;;;;;5091527;28;20459;-59
2021/03/20 11:25:36;;;;;;;5.78;2.40;;;11.20;44.00;;;;;;5091380;28;20397;-59
2021/03/20 11:28:14;;;;;;;5.93;3.03;;;11.00;44.90;;;;;;5091538;28;20409;-59
2021/03/20 11:30:42;;;;;;;6.50;2.90;;;10.40;48.70;;;;;;5092503;28;20382;-60
2021/03/20 11:33:15;;;;;;;6.50;2.97;;;10.80;43.30;;;;;;5090707;28;20406;-58
2021/03/20 11:35:45;;;;;;;6.10;3.08;;;10.40;46.90;;;;;;5092502;28;20800;-58
2021/03/20 11:38:13;;;;;;;7.10;3.40;;;10.00;46.80;;;;;;5091945;28;20465;-58
2021/03/20 11:40:45;;;;;;;7.30;3.00;;;9.70;47.10;;;;;;5092462;28;20919;-59
2021/03/20 11:43:25;;;;;;;6.82;3.10;;;9.30;49.00;;;;;;5091964;28;20414;-58
2021/03/20 11:45:54;;;;;;;5.75;2.72;;;9.10;48.60;;;;;;5092461;28;20374;-59
2021/03/20 11:48:36;;;;;;;5.90;2.70;;;8.60;45.60;;;;;;5091857;28;20398;-58
2021/03/20 11:51:04;;;;;;;7.93;3.08;;;7.90;47.00;;;;;;5092595;28;20393;-58
2021/03/20 11:53:43;;;;;;;6.90;3.17;;;7.50;49.10;;;;;;5091648;28;20375;-59
2021/03/20 11:56:21;;;;;;;5.60;2.70;;;7.60;49.50;;;;;;5091273;28;20739;-57
2021/03/20 11:59:00;;;;;;;5.03;2.65;;;7.70;51.10;;;;;;5092022;28;20443;-58
2021/03/20 12:01:43;;;;;;;6.20;3.03;;;7.60;47.20;;;;;;5090434;28;20386;-58
2021/03/20 12:04:09;;;;;;;6.07;2.70;;;7.20;49.70;;;;;;5075898;28;20387;-58
2021/03/20 12:06:36;;;;;;;6.23;2.70;;;7.20;46.90;;;;;;5071972;28;20878;-59
2021/03/20 12:09:28;;;;;;;6.80;2.87;;;7.30;46.60;;;;;;5071416;28;20506;-58
2021/03/20 12:11:56;;;;;;;7.18;3.10;;;6.90;49.50;;;;;;5071550;28;20441;-58
2021/03/20 12:14:41;;;;;;;7.68;2.40;;;7.00;48.30;;;;;;5070998;28;20390;-58
2021/03/20 12:17:09;;;;;;;7.40;2.90;;;7.20;50.80;;;;;;5071256;28;20434;-57
2021/03/20 12:20:07;;;;;;;6.60;2.83;;;7.20;51.80;;;;;;5071306;28;20388;-58
2021/03/20 12:22:51;;;;;;;7.00;3.10;;;7.20;51.30;;;;;;5071196;28;20384;-58
2021/03/20 12:25:23;;;;;;;8.10;3.35;;;7.30;51.50;;;;;;5070712;28;20404;-57
2021/03/20 12:27:51;;;;;;;7.63;3.50;;;7.40;48.60;;;;;;5071580;28;20431;-58
2021/03/20 12:30:33;;;;;;;7.60;3.15;;;7.30;48.40;;;;;;5070759;28;20395;-58
2021/03/20 12:33:19;;;;;;;8.97;4.40;;;7.60;47.30;;;;;;5071156;28;20387;-58
2021/03/20 12:35:48;;;;;;;7.10;3.75;;;7.70;48.90;;;;;;5071114;28;20396;-58
2021/03/20 12:38:18;;;;;;;6.05;2.90;;;7.50;46.50;;;;;;5070222;28;20384;-58
2021/03/20 12:40:51;;;;;;;5.90;2.90;;;7.10;48.50;;;;;;5071313;28;20383;-58
2021/03/20 12:43:37;;;;;;;5.50;2.60;;;7.30;50.00;;;;;;5070259;28;20391;-58
2021/03/20 12:46:09;;;;;;;6.22;2.90;;;7.60;47.00;;;;;;5071530;28;20842;-58
2021/03/20 12:48:38;;;;;;;6.07;2.90;;;7.80;47.80;;;;;;5070895;28;20442;-58
2021/03/20 12:51:07;;;;;;;6.55;3.10;;;7.60;49.00;;;;;;5070927;28;20430;-58
2021/03/20 12:53:33;;;;;;;6.55;3.25;;;7.50;49.80;;;;;;5070726;28;20388;-58
2021/03/20 12:55:59;;;;;;;6.60;2.60;;;7.20;48.60;;;;;;5071262;28;20391;-58
2021/03/20 12:58:25;;;;;;;6.10;2.70;;;7.30;48.90;;;;;;5070043;28;20383;-58
2021/03/20 13:00:51;;;;;;;6.32;2.90;;;7.20;48.30;;;;;;5070876;28;20930;-58
2021/03/20 13:03:16;;;;;;;6.85;3.13;;;7.30;48.80;;;;;;5078152;28;20894;-58
2021/03/20 13:05:43;;;;;;;6.43;2.83;;;7.00;48.10;;;;;;5091442;28;20370;-58
2021/03/20 13:08:10;;;;;;;6.00;2.83;;;6.90;49.50;;;;;;5090219;28;20401;-57
2021/03/20 13:10:36;;;;;;;6.22;2.90;;;6.40;50.50;;;;;;5091150;28;20397;-58
2021/03/20 13:13:02;;;;;;;6.60;3.10;;;6.80;49.30;;;;;;5090840;28;20465;-58
2021/03/20 13:15:28;;;;;;;5.38;2.70;;;7.10;49.70;;;;;;5089994;28;20966;-58
2021/03/20 13:17:54;;;;;;;6.32;3.20;;;7.40;49.20;;;;;;5090547;28;20774;-59
2021/03/20 13:20:21;;;;;;;5.77;2.80;;;7.80;49.20;;;;;;5071891;28;20930;-57
2021/03/20 13:22:48;;;;;;;7.37;3.20;;;7.10;48.00;;;;;;5090689;28;20385;-58
2021/03/20 13:25:32;;;;;;;6.80;2.90;;;7.20;48.80;;;;;;5090246;28;20396;-57
2021/03/20 13:27:58;;;;;;;7.23;3.30;;;7.20;49.10;;;;;;5090949;28;20428;-58
2021/03/20 13:30:29;;;;;;;6.33;3.20;;;6.80;49.20;;;;;;5089521;28;20390;-59
2021/03/20 13:32:56;;;;;;;8.63;4.80;;;6.90;51.00;;;;;;5090549;28;20370;-58